Time;durP1;ratioP1;P1;durP2;ratioP2;P2;SDS_P1;SDS_P2;PMS_P1;PMS_P2;Temp;Humidity;BMP_temperature;BMP_pressure;BME280_temperature;BME280_humidity;BME280_pressure;Samples;Min_cycle;Max_cycle;Signal;HPM_P1;HPM_P2
2022/02/27 00:02:20;;;;;;;19.65;8.75;;;;;;;;;;4949372;28;20047;-80
2022/02/27 00:04:46;;;;;;;20.85;8.63;;;;;;;;;;4953458;28;20459;-80
2022/02/27 00:07:12;;;;;;;14.23;7.78;;;;;;;;;;4962620;28;20042;-79
2022/02/27 00:09:38;;;;;;;13.77;5.78;;;;;;;;;;4951193;28;20373;-79
2022/02/27 00:12:05;;;;;;;15.40;6.25;;;;;;;;;;4944198;28;20082;-80
2022/02/27 00:14:31;;;;;;;14.02;5.65;;;;;;;;;;4948497;28;20053;-80
2022/02/27 00:16:56;;;;;;;17.65;7.63;;;;;;;;;;4939864;28;20039;-80
2022/02/27 00:19:23;;;;;;;14.88;6.55;;;;;;;;;;4957085;28;20113;-80
2022/02/27 00:21:50;;;;;;;14.18;6.15;;;;;;;;;;4969361;28;20128;-80
2022/02/27 00:24:16;;;;;;;17.05;7.72;;;;;;;;;;4952151;28;20041;-80
2022/02/27 00:26:42;;;;;;;18.77;7.68;;;;;;;;;;4956460;28;20083;-80
2022/02/27 00:29:08;;;;;;;17.58;6.07;;;;;;;;;;4963177;28;20050;-80
2022/02/27 00:31:34;;;;;;;14.00;5.93;;;;;;;;;;4960315;28;20051;-80
2022/02/27 00:34:00;;;;;;;13.77;7.53;;;;;;;;;;4949887;28;20067;-80
2022/02/27 00:36:26;;;;;;;16.90;6.20;;;;;;;;;;4959594;28;20077;-80
2022/02/27 00:38:52;;;;;;;17.30;5.95;;;;;;;;;;4952148;28;20047;-80
2022/02/27 00:41:19;;;;;;;12.98;5.50;;;;;;;;;;4942759;28;20047;-80
2022/02/27 00:43:45;;;;;;;16.63;7.28;;;;;;;;;;4934484;28;20046;-80
2022/02/27 00:46:11;;;;;;;20.65;8.75;;;;;;;;;;4936957;28;20038;-80
2022/02/27 00:48:37;;;;;;;19.80;9.68;;;;;;;;;;4969369;28;20046;-80
2022/02/27 00:51:03;;;;;;;17.55;8.80;;;;;;;;;;4956424;28;20051;-80
2022/02/27 00:53:29;;;;;;;22.58;8.85;;;;;;;;;;4968705;28;20069;-80
2022/02/27 00:55:55;;;;;;;26.25;10.02;;;;;;;;;;4956567;28;20661;-80
2022/02/27 00:58:21;;;;;;;19.20;7.80;;;;;;;;;;4948814;28;20047;-80
2022/02/27 01:00:47;;;;;;;15.45;5.57;;;;;;;;;;4962550;28;20042;-80
2022/02/27 01:03:13;;;;;;;22.45;6.10;;;;;;;;;;4957083;28;20481;-80
2022/02/27 01:05:39;;;;;;;22.35;5.40;;;;;;;;;;4949718;28;20481;-80
2022/02/27 01:08:05;;;;;;;17.92;5.30;;;;;;;;;;4944979;28;20129;-80
2022/02/27 01:10:31;;;;;;;12.38;4.20;;;;;;;;;;4955098;28;20046;-80
2022/02/27 01:12:57;;;;;;;11.65;4.80;;;;;;;;;;4955057;28;20134;-80
2022/02/27 01:15:23;;;;;;;14.07;4.80;;;;;;;;;;4949450;28;20752;-80
2022/02/27 01:17:49;;;;;;;15.27;5.65;;;;;;;;;;4956699;28;20039;-80
2022/02/27 01:20:16;;;;;;;13.52;4.90;;;;;;;;;;4956140;28;20047;-80
2022/02/27 01:22:42;;;;;;;13.25;4.78;;;;;;;;;;4959051;28;20413;-80
2022/02/27 01:25:09;;;;;;;19.27;4.88;;;;;;;;;;4958860;28;20047;-80
2022/02/27 01:27:35;;;;;;;15.05;4.97;;;;;;;;;;4953557;28;20042;-80
2022/02/27 01:30:01;;;;;;;11.55;5.05;;;;;;;;;;4940425;28;20047;-80
2022/02/27 01:32:27;;;;;;;13.40;4.75;;;;;;;;;;4940045;28;20050;-80
2022/02/27 01:34:53;;;;;;;13.82;4.30;;;;;;;;;;4936658;28;20130;-80
2022/02/27 01:37:19;;;;;;;12.98;4.63;;;;;;;;;;4961717;28;20039;-80
2022/02/27 01:39:45;;;;;;;13.82;4.80;;;;;;;;;;4937789;28;20040;-80
2022/02/27 01:42:13;;;;;;;11.70;4.93;;;;;;;;;;4953452;28;20039;-80
2022/02/27 01:44:39;;;;;;;16.10;5.60;;;;;;;;;;4949909;28;20094;-80
2022/02/27 01:47:11;;;;;;;16.25;4.88;;;;;;;;;;4952329;28;20053;-80
2022/02/27 01:49:38;;;;;;;11.73;4.60;;;;;;;;;;4929377;28;20054;-80
2022/02/27 01:52:05;;;;;;;13.10;4.72;;;;;;;;;;4956386;28;20054;-80
2022/02/27 01:54:31;;;;;;;16.10;5.10;;;;;;;;;;4959813;28;20042;-80
2022/02/27 01:56:58;;;;;;;16.75;5.32;;;;;;;;;;4954930;28;20046;-80
2022/02/27 01:59:24;;;;;;;13.50;4.70;;;;;;;;;;4956539;28;20465;-80
2022/02/27 02:01:50;;;;;;;16.52;5.72;;;;;;;;;;4945555;28;20469;-80
2022/02/27 02:04:17;;;;;;;11.60;4.63;;;;;;;;;;4948662;28;20085;-80
2022/02/27 02:06:43;;;;;;;16.23;7.40;;;;;;;;;;4952938;28;20070;-80
2022/02/27 02:09:09;;;;;;;14.25;5.68;;;;;;;;;;4958144;28;20043;-80
2022/02/27 02:11:36;;;;;;;13.98;5.65;;;;;;;;;;4957140;28;20039;-80
2022/02/27 02:14:05;;;;;;;13.90;5.30;;;;;;;;;;4949683;28;20430;-81
2022/02/27 02:16:58;;;;;;;14.35;5.40;;;;;;;;;;4951957;28;20766;-80
2022/02/27 02:19:24;;;;;;;12.15;5.47;;;;;;;;;;4952386;28;20473;-80
2022/02/27 02:21:52;;;;;;;16.70;5.03;;;;;;;;;;4948607;28;20509;-80
2022/02/27 02:24:19;;;;;;;15.63;5.45;;;;;;;;;;4956382;28;20051;-80
2022/02/27 02:26:45;;;;;;;11.93;5.15;;;;;;;;;;4954195;28;20044;-80
2022/02/27 02:29:13;;;;;;;13.27;5.38;;;;;;;;;;4944492;28;20507;-80
2022/02/27 02:31:39;;;;;;;15.23;5.32;;;;;;;;;;4955667;28;20039;-80
2022/02/27 02:34:06;;;;;;;16.05;5.53;;;;;;;;;;4930192;28;20069;-80
2022/02/27 02:36:32;;;;;;;13.35;5.13;;;;;;;;;;4952275;28;20078;-80
2022/02/27 02:38:59;;;;;;;18.33;7.35;;;;;;;;;;4967644;28;20038;-80
2022/02/27 02:41:25;;;;;;;16.83;5.60;;;;;;;;;;4955383;28;20133;-80
2022/02/27 02:43:51;;;;;;;18.13;5.63;;;;;;;;;;4956415;28;20121;-80
2022/02/27 02:46:17;;;;;;;20.50;5.80;;;;;;;;;;4937044;28;20485;-80
2022/02/27 02:48:43;;;;;;;12.52;5.55;;;;;;;;;;4937315;28;20054;-80
2022/02/27 02:51:09;;;;;;;16.48;5.40;;;;;;;;;;4951920;28;20043;-80
2022/02/27 02:53:36;;;;;;;16.17;5.38;;;;;;;;;;4944430;28;20086;-80
2022/02/27 02:56:05;;;;;;;13.65;4.72;;;;;;;;;;4950405;28;20062;-80
2022/02/27 02:58:32;;;;;;;15.95;5.65;;;;;;;;;;4957266;28;20047;-80
2022/02/27 03:00:58;;;;;;;11.38;5.43;;;;;;;;;;4959865;28;20063;-80
2022/02/27 03:03:24;;;;;;;14.38;5.20;;;;;;;;;;4954003;28;20178;-80
2022/02/27 03:05:50;;;;;;;14.50;6.00;;;;;;;;;;4947721;28;20408;-80
2022/02/27 03:08:16;;;;;;;15.23;5.35;;;;;;;;;;4936352;28;20122;-80
2022/02/27 03:10:42;;;;;;;18.25;5.93;;;;;;;;;;4951148;28;20101;-80
2022/02/27 03:13:08;;;;;;;12.00;5.43;;;;;;;;;;4944595;28;20066;-80
2022/02/27 03:15:34;;;;;;;14.70;6.30;;;;;;;;;;4950731;28;20193;-80
2022/02/27 03:18:00;;;;;;;13.55;5.55;;;;;;;;;;4951193;28;20038;-80
2022/02/27 03:20:26;;;;;;;16.15;5.43;;;;;;;;;;4955562;28;20055;-80
2022/02/27 03:22:52;;;;;;;15.38;5.57;;;;;;;;;;4954305;28;20378;-80
2022/02/27 03:25:18;;;;;;;12.57;5.70;;;;;;;;;;4942216;28;20039;-80
2022/02/27 03:27:44;;;;;;;18.85;5.97;;;;;;;;;;4952718;28;20038;-80
2022/02/27 03:30:10;;;;;;;13.90;5.88;;;;;;;;;;4938265;28;20043;-80
2022/02/27 03:32:36;;;;;;;12.77;5.35;;;;;;;;;;4952344;28;20066;-80
2022/02/27 03:35:02;;;;;;;14.30;5.55;;;;;;;;;;4955065;28;20128;-80
2022/02/27 03:37:28;;;;;;;13.20;5.53;;;;;;;;;;4951555;28;20039;-80
2022/02/27 03:39:54;;;;;;;18.38;6.30;;;;;;;;;;4950777;28;20050;-80
2022/02/27 03:42:20;;;;;;;14.43;5.38;;;;;;;;;;4954994;28;20554;-80
2022/02/27 03:44:46;;;;;;;12.13;6.03;;;;;;;;;;4954923;28;20038;-80
2022/02/27 03:47:12;;;;;;;10.73;5.95;;;;;;;;;;4949313;28;20051;-80
2022/02/27 03:49:38;;;;;;;15.20;5.95;;;;;;;;;;4950601;28;20043;-80
2022/02/27 03:52:04;;;;;;;16.10;6.22;;;;;;;;;;4948442;28;20061;-80
2022/02/27 03:54:30;;;;;;;15.43;6.03;;;;;;;;;;4955794;28;20042;-80
2022/02/27 03:56:56;;;;;;;13.25;5.90;;;;;;;;;;4951805;28;20070;-80
2022/02/27 03:59:22;;;;;;;16.83;7.78;;;;;;;;;;4953436;28;20059;-80
2022/02/27 04:01:48;;;;;;;16.75;6.50;;;;;;;;;;4956707;28;20034;-80
2022/02/27 04:04:14;;;;;;;19.42;6.97;;;;;;;;;;4933735;28;20046;-80
2022/02/27 04:06:41;;;;;;;16.00;7.68;;;;;;;;;;4954136;28;20047;-80
2022/02/27 04:09:07;;;;;;;14.27;6.10;;;;;;;;;;4952670;28;20048;-80
2022/02/27 04:11:33;;;;;;;14.80;6.68;;;;;;;;;;4954637;28;20043;-80
2022/02/27 04:13:59;;;;;;;15.25;7.32;;;;;;;;;;4954193;28;20038;-80
2022/02/27 04:16:25;;;;;;;15.98;7.28;;;;;;;;;;4952586;28;20055;-80
2022/02/27 04:18:50;;;;;;;17.05;6.65;;;;;;;;;;4944380;28;20051;-80
2022/02/27 04:21:16;;;;;;;17.67;7.90;;;;;;;;;;4953604;28;20069;-80
2022/02/27 04:23:42;;;;;;;12.43;7.25;;;;;;;;;;4953699;28;20039;-80
2022/02/27 04:26:08;;;;;;;19.05;8.13;;;;;;;;;;4953979;28;20464;-80
2022/02/27 04:28:34;;;;;;;13.50;6.93;;;;;;;;;;4936320;28;20053;-80
2022/02/27 04:31:00;;;;;;;15.45;7.57;;;;;;;;;;4952934;28;20050;-80
2022/02/27 04:33:26;;;;;;;19.45;7.85;;;;;;;;;;4963464;28;20050;-80
2022/02/27 04:35:52;;;;;;;15.45;6.93;;;;;;;;;;4953734;23;20043;-81
2022/02/27 04:38:18;;;;;;;13.73;7.35;;;;;;;;;;4948254;28;20354;-81
2022/02/27 04:40:45;;;;;;;17.65;7.00;;;;;;;;;;4949294;29;20050;-81
2022/02/27 04:43:11;;;;;;;17.85;8.15;;;;;;;;;;4944915;29;20502;-81
2022/02/27 04:45:37;;;;;;;13.95;7.00;;;;;;;;;;4952806;29;23379;-81
2022/02/27 04:48:03;;;;;;;12.90;7.15;;;;;;;;;;4952497;29;20074;-81
2022/02/27 04:50:29;;;;;;;19.00;7.68;;;;;;;;;;4952280;29;20035;-81
2022/02/27 04:52:55;;;;;;;16.67;7.63;;;;;;;;;;4942927;28;20038;-80
2022/02/27 04:55:21;;;;;;;16.90;8.13;;;;;;;;;;4950000;28;20046;-81
2022/02/27 04:57:47;;;;;;;18.13;8.05;;;;;;;;;;4935862;29;20044;-81
2022/02/27 05:00:14;;;;;;;19.42;7.32;;;;;;;;;;4949881;29;20055;-81
2022/02/27 05:02:40;;;;;;;16.88;8.15;;;;;;;;;;4942534;29;20043;-81
2022/02/27 05:05:06;;;;;;;16.00;7.18;;;;;;;;;;4950123;29;20098;-81
2022/02/27 05:07:32;;;;;;;17.23;7.60;;;;;;;;;;4946317;29;20043;-81
2022/02/27 05:10:00;;;;;;;18.38;7.97;;;;;;;;;;4944889;28;20039;-81
2022/02/27 05:12:26;;;;;;;16.73;7.60;;;;;;;;;;4951069;29;20047;-81
2022/02/27 05:14:52;;;;;;;18.52;7.63;;;;;;;;;;4952320;29;20082;-81
2022/02/27 05:17:18;;;;;;;17.02;8.10;;;;;;;;;;4952972;28;20500;-81
2022/02/27 05:19:44;;;;;;;19.23;7.85;;;;;;;;;;4949011;29;20064;-81
2022/02/27 05:22:10;;;;;;;14.15;6.97;;;;;;;;;;4954188;29;20082;-81
2022/02/27 05:24:36;;;;;;;17.70;8.90;;;;;;;;;;4939124;29;20083;-81
2022/02/27 05:27:02;;;;;;;15.57;7.65;;;;;;;;;;4945193;29;20058;-81
2022/02/27 05:29:28;;;;;;;16.33;7.90;;;;;;;;;;4936454;29;20050;-81
2022/02/27 05:31:54;;;;;;;21.27;7.80;;;;;;;;;;4949539;29;20371;-78
2022/02/27 05:34:22;;;;;;;17.05;8.10;;;;;;;;;;4952700;29;20054;-79
2022/02/27 05:36:48;;;;;;;17.45;8.98;;;;;;;;;;4946460;29;20051;-79
2022/02/27 05:39:14;;;;;;;20.55;8.40;;;;;;;;;;4937866;28;20043;-79
2022/02/27 05:41:42;;;;;;;15.68;8.27;;;;;;;;;;4946703;28;20054;-80
2022/02/27 05:44:08;;;;;;;19.63;8.90;;;;;;;;;;4949818;29;20044;-80
2022/02/27 05:46:34;;;;;;;17.58;9.20;;;;;;;;;;4954280;29;20543;-80
2022/02/27 05:49:00;;;;;;;15.02;8.05;;;;;;;;;;4952752;29;20039;-80
2022/02/27 05:51:26;;;;;;;14.95;8.80;;;;;;;;;;4938151;29;20154;-80
2022/02/27 05:53:52;;;;;;;18.98;9.30;;;;;;;;;;4949860;29;20055;-80
2022/02/27 05:56:18;;;;;;;16.02;8.32;;;;;;;;;;4947565;29;20039;-80
2022/02/27 05:58:44;;;;;;;19.15;9.38;;;;;;;;;;4949398;29;20107;-80
2022/02/27 06:01:10;;;;;;;21.30;9.80;;;;;;;;;;4951958;29;20485;-81
2022/02/27 06:03:36;;;;;;;18.65;8.50;;;;;;;;;;4952378;29;20054;-80
2022/02/27 06:06:02;;;;;;;17.90;9.35;;;;;;;;;;4953056;29;20553;-80
2022/02/27 06:08:30;;;;;;;20.67;10.30;;;;;;;;;;4953658;29;20039;-81
2022/02/27 06:10:56;;;;;;;16.77;12.82;;;;;;;;;;4966587;28;20043;-80
2022/02/27 06:13:22;;;;;;;19.80;11.07;;;;;;;;;;4929548;29;20138;-80
2022/02/27 06:15:48;;;;;;;17.77;9.85;;;;;;;;;;4952405;28;20070;-80
2022/02/27 06:18:13;;;;;;;14.90;9.63;;;;;;;;;;4950804;29;20109;-80
2022/02/27 06:20:39;;;;;;;21.45;10.60;;;;;;;;;;4933965;29;20511;-80
2022/02/27 06:23:06;;;;;;;20.85;9.20;;;;;;;;;;4954570;29;20117;-80
2022/02/27 06:25:32;;;;;;;21.17;10.85;;;;;;;;;;4954210;29;20657;-80
2022/02/27 06:27:59;;;;;;;20.50;9.80;;;;;;;;;;4948598;29;20054;-80
2022/02/27 06:30:26;;;;;;;20.50;9.80;;;;;;;;;;4935565;29;20051;-80
2022/02/27 06:32:52;;;;;;;20.52;9.88;;;;;;;;;;4946826;29;20512;-80
2022/02/27 06:35:19;;;;;;;18.20;10.25;;;;;;;;;;4947708;28;20083;-80
2022/02/27 06:37:45;;;;;;;18.40;9.63;;;;;;;;;;4953233;28;20436;-80
2022/02/27 06:40:11;;;;;;;20.08;10.45;;;;;;;;;;4948203;29;20035;-80
2022/02/27 06:42:38;;;;;;;23.58;11.02;;;;;;;;;;4949871;29;20043;-81
2022/02/27 06:45:05;;;;;;;19.17;10.25;;;;;;;;;;4946908;29;20043;-80
2022/02/27 06:47:31;;;;;;;22.08;10.25;;;;;;;;;;4940852;29;20400;-80
2022/02/27 06:49:57;;;;;;;22.35;10.63;;;;;;;;;;4944157;29;20042;-80
2022/02/27 06:52:23;;;;;;;16.38;9.90;;;;;;;;;;4943627;29;20047;-80
2022/02/27 06:54:49;;;;;;;19.33;9.80;;;;;;;;;;4936040;29;20142;-80
2022/02/27 06:57:15;;;;;;;20.02;9.95;;;;;;;;;;4941142;28;20051;-80
2022/02/27 06:59:41;;;;;;;18.35;9.75;;;;;;;;;;4942204;29;20047;-80
2022/02/27 07:02:08;;;;;;;21.55;10.95;;;;;;;;;;4948699;29;20062;-80
2022/02/27 07:04:34;;;;;;;18.73;9.98;;;;;;;;;;4934820;29;20426;-80
2022/02/27 07:07:00;;;;;;;21.55;10.27;;;;;;;;;;4952251;29;20401;-80
2022/02/27 07:09:26;;;;;;;16.05;10.48;;;;;;;;;;4946266;29;20106;-80
2022/02/27 07:11:53;;;;;;;19.33;10.70;;;;;;;;;;4949454;29;20047;-80
2022/02/27 07:14:20;;;;;;;21.88;9.60;;;;;;;;;;4931839;29;20532;-80
2022/02/27 07:16:45;;;;;;;20.85;10.63;;;;;;;;;;4945751;28;20048;-80
2022/02/27 07:19:11;;;;;;;12.68;9.10;;;;;;;;;;4944567;29;20051;-80
2022/02/27 07:21:37;;;;;;;14.85;8.73;;;;;;;;;;4947172;29;20039;-80
2022/02/27 07:24:04;;;;;;;21.48;9.23;;;;;;;;;;4923477;29;20371;-81
2022/02/27 07:26:30;;;;;;;15.43;8.70;;;;;;;;;;4941705;29;20047;-80
2022/02/27 07:28:55;;;;;;;14.73;8.30;;;;;;;;;;4946658;29;20046;-80
2022/02/27 07:31:22;;;;;;;13.93;8.43;;;;;;;;;;4938560;29;20097;-80
2022/02/27 07:33:49;;;;;;;14.60;8.75;;;;;;;;;;4947103;29;20143;-80
2022/02/27 07:36:15;;;;;;;13.60;8.45;;;;;;;;;;4942536;28;20047;-80
2022/02/27 07:38:41;;;;;;;15.90;8.35;;;;;;;;;;4930256;29;20053;-80
2022/02/27 07:41:07;;;;;;;13.07;7.70;;;;;;;;;;4948430;28;20050;-80
2022/02/27 07:43:33;;;;;;;13.55;8.25;;;;;;;;;;4935815;29;20046;-81
2022/02/27 07:46:00;;;;;;;13.20;8.23;;;;;;;;;;4936399;29;20050;-81
2022/02/27 07:48:27;;;;;;;15.55;7.88;;;;;;;;;;4937247;29;20384;-80
2022/02/27 07:50:53;;;;;;;16.40;7.78;;;;;;;;;;4933333;28;20099;-80
2022/02/27 07:53:19;;;;;;;12.55;7.38;;;;;;;;;;4951682;29;20071;-80
2022/02/27 07:55:45;;;;;;;16.20;7.38;;;;;;;;;;4953668;28;20121;-80
2022/02/27 07:58:12;;;;;;;14.82;7.65;;;;;;;;;;4945815;29;20043;-80
2022/02/27 08:00:38;;;;;;;18.90;8.15;;;;;;;;;;4931599;29;20504;-80
2022/02/27 08:03:04;;;;;;;15.82;7.10;;;;;;;;;;4929227;29;20046;-79
2022/02/27 08:05:30;;;;;;;14.75;7.68;;;;;;;;;;4962250;28;20449;-80
2022/02/27 08:07:57;;;;;;;14.55;7.43;;;;;;;;;;4945770;29;20044;-80
2022/02/27 08:10:23;;;;;;;14.35;7.50;;;;;;;;;;4928975;29;20134;-78
2022/02/27 08:12:49;;;;;;;16.48;7.53;;;;;;;;;;4946213;28;20131;-78
2022/02/27 08:15:16;;;;;;;12.30;6.93;;;;;;;;;;4944045;29;20127;-78
2022/02/27 08:17:43;;;;;;;11.88;5.78;;;;;;;;;;4940900;29;20047;-79
2022/02/27 08:20:09;;;;;;;14.68;6.63;;;;;;;;;;4941489;29;20046;-79
2022/02/27 08:22:36;;;;;;;15.18;7.90;;;;;;;;;;4948376;28;20375;-79
2022/02/27 08:25:03;;;;;;;12.88;6.80;;;;;;;;;;4946901;29;20329;-79
2022/02/27 08:27:29;;;;;;;14.57;7.35;;;;;;;;;;4950486;29;20172;-79
2022/02/27 08:29:55;;;;;;;16.50;7.63;;;;;;;;;;4951593;29;20055;-78
2022/02/27 08:32:21;;;;;;;15.30;6.78;;;;;;;;;;4949578;29;20110;-79
2022/02/27 08:34:47;;;;;;;16.00;6.45;;;;;;;;;;4945246;29;20047;-79
2022/02/27 08:37:13;;;;;;;11.75;6.40;;;;;;;;;;4946581;28;20063;-79
2022/02/27 08:39:39;;;;;;;12.18;6.50;;;;;;;;;;4938856;29;20060;-79
2022/02/27 08:42:05;;;;;;;11.18;6.38;;;;;;;;;;4948908;29;20047;-78
2022/02/27 08:44:35;;;;;;;12.93;6.65;;;;;;;;;;4952437;29;20035;-78
2022/02/27 08:47:04;;;;;;;14.65;6.82;;;;;;;;;;4939281;29;20040;-79
2022/02/27 08:49:31;;;;;;;12.73;6.10;;;;;;;;;;4952001;29;20043;-78
2022/02/27 08:51:57;;;;;;;11.45;5.82;;;;;;;;;;4951968;29;20087;-78
2022/02/27 08:54:24;;;;;;;9.45;5.53;;;;;;;;;;4929005;29;20127;-78
2022/02/27 08:56:50;;;;;;;13.32;6.25;;;;;;;;;;4951652;29;20042;-78
2022/02/27 08:59:17;;;;;;;13.15;6.15;;;;;;;;;;4943235;29;20047;-79
2022/02/27 09:01:43;;;;;;;11.57;5.55;;;;;;;;;;4948857;29;20047;-78
2022/02/27 09:04:09;;;;;;;16.73;6.97;;;;;;;;;;4947899;29;20378;-78
2022/02/27 09:06:35;;;;;;;12.02;6.28;;;;;;;;;;4939708;29;20036;-78
2022/02/27 09:09:01;;;;;;;11.07;6.57;;;;;;;;;;4943629;29;20118;-79
2022/02/27 09:11:27;;;;;;;11.20;6.35;;;;;;;;;;4952030;29;20050;-79
2022/02/27 09:13:53;;;;;;;14.15;6.25;;;;;;;;;;4928885;29;20069;-79
2022/02/27 09:16:19;;;;;;;12.02;6.20;;;;;;;;;;4949931;29;20042;-79
2022/02/27 09:18:45;;;;;;;8.18;5.32;;;;;;;;;;4944757;29;20043;-79
2022/02/27 09:21:11;;;;;;;13.73;6.18;;;;;;;;;;4948412;29;20046;-79
2022/02/27 09:23:37;;;;;;;12.75;5.57;;;;;;;;;;4929764;29;20556;-79
2022/02/27 09:26:04;;;;;;;10.98;6.18;;;;;;;;;;4951542;29;20390;-79
2022/02/27 09:28:31;;;;;;;13.35;5.63;;;;;;;;;;4944007;28;20035;-79
2022/02/27 09:30:57;;;;;;;10.02;5.22;;;;;;;;;;4924794;28;20047;-79
2022/02/27 09:33:23;;;;;;;11.07;5.03;;;;;;;;;;4951674;28;20043;-79
2022/02/27 09:35:50;;;;;;;9.48;5.75;;;;;;;;;;4947040;29;20051;-79
2022/02/27 09:38:16;;;;;;;8.20;5.85;;;;;;;;;;4937698;29;20046;-78
2022/02/27 09:40:42;;;;;;;11.10;4.82;;;;;;;;;;4953682;29;20147;-78
2022/02/27 09:43:08;;;;;;;8.25;4.40;;;;;;;;;;4953693;29;20043;-80
2022/02/27 09:45:34;;;;;;;8.85;4.70;;;;;;;;;;4951245;29;20127;-79
2022/02/27 09:48:00;;;;;;;8.95;5.10;;;;;;;;;;4943523;29;20048;-79
2022/02/27 09:50:26;;;;;;;10.25;5.13;;;;;;;;;;4935846;29;20098;-79
2022/02/27 09:52:53;;;;;;;9.27;5.05;;;;;;;;;;4953380;29;20554;-79
2022/02/27 09:55:19;;;;;;;9.32;5.03;;;;;;;;;;4952419;29;20052;-78
2022/02/27 09:57:46;;;;;;;7.28;4.82;;;;;;;;;;4926999;29;20040;-79
2022/02/27 10:00:16;;;;;;;8.98;5.10;;;;;;;;;;4930747;29;20052;-79
2022/02/27 10:03:01;;;;;;;9.40;5.13;;;;;;;;;;4935734;29;20521;-79
2022/02/27 10:05:27;;;;;;;10.00;4.80;;;;;;;;;;4952275;29;20053;-78
2022/02/27 10:07:57;;;;;;;9.00;5.22;;;;;;;;;;4937349;29;20047;-79
2022/02/27 10:10:23;;;;;;;10.77;5.13;;;;;;;;;;4951297;29;20394;-79
2022/02/27 10:12:49;;;;;;;9.60;5.03;;;;;;;;;;4947595;29;20040;-79
2022/02/27 10:15:15;;;;;;;14.05;5.35;;;;;;;;;;4951621;29;20077;-79
2022/02/27 10:17:42;;;;;;;9.02;4.68;;;;;;;;;;4953214;29;20043;-79
2022/02/27 10:20:12;;;;;;;10.95;4.90;;;;;;;;;;4952028;29;20576;-79
2022/02/27 10:22:40;;;;;;;12.40;5.40;;;;;;;;;;4930338;29;20074;-80
2022/02/27 10:25:07;;;;;;;11.77;4.97;;;;;;;;;;4932781;29;20047;-80
2022/02/27 10:27:40;;;;;;;9.45;4.50;;;;;;;;;;4936921;29;20504;-79
2022/02/27 10:30:16;;;;;;;9.35;4.93;;;;;;;;;;4946300;29;20040;-80
2022/02/27 10:33:01;;;;;;;8.57;4.43;;;;;;;;;;4935454;29;20441;-80
2022/02/27 10:35:38;;;;;;;9.07;5.00;;;;;;;;;;4944307;29;20449;-79
2022/02/27 10:38:04;;;;;;;9.30;4.65;;;;;;;;;;4940718;29;20138;-80
2022/02/27 10:40:42;;;;;;;9.00;4.45;;;;;;;;;;4949605;29;20043;-80
2022/02/27 10:43:10;;;;;;;9.15;4.50;;;;;;;;;;4933027;29;20043;-79
2022/02/27 10:45:36;;;;;;;10.13;4.32;;;;;;;;;;4934555;29;20126;-79
2022/02/27 10:48:03;;;;;;;10.43;4.65;;;;;;;;;;4936838;29;20043;-80
2022/02/27 10:50:30;;;;;;;6.63;4.18;;;;;;;;;;4934369;29;20106;-80
2022/02/27 10:52:56;;;;;;;5.35;4.00;;;;;;;;;;4950569;29;20122;-79
2022/02/27 10:55:22;;;;;;;8.27;3.85;;;;;;;;;;4931251;29;20134;-80
2022/02/27 10:57:50;;;;;;;8.85;4.15;;;;;;;;;;4945584;29;20071;-79
2022/02/27 11:00:19;;;;;;;8.90;4.05;;;;;;;;;;4943767;28;20043;-79
2022/02/27 11:02:50;;;;;;;7.65;4.18;;;;;;;;;;4923307;29;20138;-78
2022/02/27 11:05:17;;;;;;;7.72;3.85;;;;;;;;;;4940387;29;20039;-79
2022/02/27 11:07:44;;;;;;;6.43;3.72;;;;;;;;;;4931566;29;20564;-79
2022/02/27 11:10:11;;;;;;;10.02;4.60;;;;;;;;;;4947631;29;20039;-79
2022/02/27 11:12:38;;;;;;;11.38;4.47;;;;;;;;;;4934827;29;20074;-78
2022/02/27 11:15:05;;;;;;;6.20;4.15;;;;;;;;;;4939735;29;21470;-79
2022/02/27 11:17:32;;;;;;;7.32;4.15;;;;;;;;;;4947904;29;20043;-78
2022/02/27 11:20:00;;;;;;;6.30;3.90;;;;;;;;;;4943736;29;20183;-79
2022/02/27 11:22:26;;;;;;;10.07;3.90;;;;;;;;;;4924523;29;20542;-79
2022/02/27 11:24:52;;;;;;;8.43;4.05;;;;;;;;;;4939265;29;20043;-78
2022/02/27 11:27:18;;;;;;;7.50;3.92;;;;;;;;;;4947778;29;20098;-78
2022/02/27 11:29:48;;;;;;;8.95;3.80;;;;;;;;;;4923771;29;20500;-79
2022/02/27 11:32:14;;;;;;;5.72;3.60;;;;;;;;;;4941069;29;20152;-79
2022/02/27 11:34:41;;;;;;;8.60;4.00;;;;;;;;;;4929088;29;20043;-79
2022/02/27 11:37:07;;;;;;;8.57;3.75;;;;;;;;;;4941701;29;20087;-79
2022/02/27 11:42:37;;;;;;;7.07;4.47;;;;;;;;;;4948916;29;20546;-79
2022/02/27 11:45:03;;;;;;;7.90;3.90;;;;;;;;;;4949568;28;20514;-78
2022/02/27 11:47:48;;;;;;;6.68;4.05;;;;;;;;;;4944499;29;20042;-78
2022/02/27 11:50:24;;;;;;;8.23;3.92;;;;;;;;;;4946729;29;20039;-79
2022/02/27 11:52:50;;;;;;;10.57;3.70;;;;;;;;;;4953034;28;20051;-79
2022/02/27 11:55:36;;;;;;;8.00;3.97;;;;;;;;;;4951319;29;20046;-79
2022/02/27 11:58:02;;;;;;;9.02;4.10;;;;;;;;;;4949257;29;20050;-79
2022/02/27 12:00:39;;;;;;;8.00;4.15;;;;;;;;;;4953649;28;20039;-79
2022/02/27 12:03:25;;;;;;;6.70;3.83;;;;;;;;;;4946173;28;20039;-79
2022/02/27 12:05:55;;;;;;;8.30;3.90;;;;;;;;;;4955123;23;20369;-79
2022/02/27 12:08:21;;;;;;;5.68;3.80;;;;;;;;;;4935751;28;20129;-79
2022/02/27 12:10:50;;;;;;;8.82;4.00;;;;;;;;;;4936161;28;20049;-79
2022/02/27 12:13:19;;;;;;;7.25;3.75;;;;;;;;;;4952981;29;20485;-79
2022/02/27 12:15:45;;;;;;;8.82;4.15;;;;;;;;;;4953250;28;20078;-79
2022/02/27 12:18:11;;;;;;;9.60;4.05;;;;;;;;;;4951139;28;20039;-79
2022/02/27 12:20:37;;;;;;;6.97;3.50;;;;;;;;;;4940678;28;20039;-78
2022/02/27 12:23:03;;;;;;;5.82;4.05;;;;;;;;;;4940283;28;20082;-80
2022/02/27 12:25:44;;;;;;;5.78;3.78;;;;;;;;;;4949106;28;20050;-79
2022/02/27 12:28:10;;;;;;;7.10;4.13;;;;;;;;;;4937429;28;20047;-79
2022/02/27 12:30:37;;;;;;;9.13;4.07;;;;;;;;;;4951443;28;20054;-79
2022/02/27 12:33:07;;;;;;;8.05;3.80;;;;;;;;;;4952545;28;20051;-79
2022/02/27 12:35:37;;;;;;;6.20;4.28;;;;;;;;;;4933923;28;20069;-79
2022/02/27 12:38:07;;;;;;;4.88;3.55;;;;;;;;;;4950121;28;20076;-78
2022/02/27 12:40:34;;;;;;;5.43;3.53;;;;;;;;;;4963281;28;20049;-79
2022/02/27 12:43:13;;;;;;;7.88;3.55;;;;;;;;;;4955025;28;20533;-78
2022/02/27 12:45:39;;;;;;;8.57;3.72;;;;;;;;;;4962382;28;20081;-78
2022/02/27 12:48:08;;;;;;;10.40;4.20;;;;;;;;;;4957519;28;20074;-80
2022/02/27 12:50:48;;;;;;;12.13;4.22;;;;;;;;;;4952434;28;20062;-79
2022/02/27 12:53:14;;;;;;;7.05;3.80;;;;;;;;;;4947106;28;20060;-79
2022/02/27 12:55:41;;;;;;;7.35;3.65;;;;;;;;;;4956152;28;20098;-78
2022/02/27 12:58:08;;;;;;;5.85;3.80;;;;;;;;;;4954311;28;20400;-78
2022/02/27 13:00:35;;;;;;;7.80;3.90;;;;;;;;;;4953066;28;20547;-79
2022/02/27 13:03:08;;;;;;;6.85;3.60;;;;;;;;;;4933654;28;20077;-78
2022/02/27 13:05:34;;;;;;;5.75;4.15;;;;;;;;;;4936635;28;20054;-78
2022/02/27 13:08:02;;;;;;;6.90;3.90;;;;;;;;;;4931773;28;20755;-78
2022/02/27 13:10:28;;;;;;;8.95;4.10;;;;;;;;;;4933058;28;20043;-78
2022/02/27 13:12:54;;;;;;;6.15;3.65;;;;;;;;;;4944780;28;20054;-78
2022/02/27 13:15:20;;;;;;;4.68;3.42;;;;;;;;;;4925225;28;20059;-78
2022/02/27 13:17:46;;;;;;;6.55;3.13;;;;;;;;;;4932047;28;20042;-78
2022/02/27 13:20:14;;;;;;;10.25;4.70;;;;;;;;;;4928638;28;20043;-78
2022/02/27 13:22:41;;;;;;;6.20;3.88;;;;;;;;;;4943481;28;20043;-77
2022/02/27 13:25:09;;;;;;;6.88;3.58;;;;;;;;;;4949243;28;20055;-78
2022/02/27 13:27:38;;;;;;;5.00;3.80;;;;;;;;;;4937957;28;20043;-78
2022/02/27 13:30:06;;;;;;;7.70;3.78;;;;;;;;;;4948793;28;20058;-78
2022/02/27 13:32:33;;;;;;;6.03;3.78;;;;;;;;;;4946700;28;20043;-78
2022/02/27 13:35:00;;;;;;;6.78;3.45;;;;;;;;;;4955150;28;20054;-79
2022/02/27 13:37:28;;;;;;;5.40;3.30;;;;;;;;;;4947517;28;20046;-78
2022/02/27 13:39:55;;;;;;;4.97;2.83;;;;;;;;;;4954160;28;20063;-78
2022/02/27 13:42:21;;;;;;;6.10;3.28;;;;;;;;;;4935777;28;20043;-78
2022/02/27 13:44:47;;;;;;;6.20;3.53;;;;;;;;;;4953717;28;20428;-79
2022/02/27 13:47:22;;;;;;;6.20;3.38;;;;;;;;;;4953821;28;20043;-79
2022/02/27 13:49:48;;;;;;;7.15;3.28;;;;;;;;;;4955240;28;20042;-78
2022/02/27 13:52:21;;;;;;;5.70;3.38;;;;;;;;;;4954925;28;20051;-79
2022/02/27 13:54:48;;;;;;;7.50;4.13;;;;;;;;;;4956735;28;20038;-78
2022/02/27 13:57:14;;;;;;;6.38;3.58;;;;;;;;;;4952783;28;20492;-79
2022/02/27 13:59:41;;;;;;;5.32;3.10;;;;;;;;;;4955031;28;20054;-79
2022/02/27 14:02:07;;;;;;;6.95;3.75;;;;;;;;;;4954550;28;20125;-79
2022/02/27 14:04:33;;;;;;;7.63;3.65;;;;;;;;;;4944494;28;20050;-79
2022/02/27 14:06:59;;;;;;;4.93;3.35;;;;;;;;;;4957047;28;20054;-79
2022/02/27 14:09:26;;;;;;;5.13;3.22;;;;;;;;;;4937927;28;20069;-79
2022/02/27 14:12:02;;;;;;;6.82;3.50;;;;;;;;;;4954375;28;20045;-78
2022/02/27 14:14:28;;;;;;;5.45;3.30;;;;;;;;;;4948557;28;20051;-79
2022/02/27 14:16:54;;;;;;;5.30;3.00;;;;;;;;;;4949606;28;20050;-79
2022/02/27 14:19:21;;;;;;;4.20;2.50;;;;;;;;;;4953903;28;20389;-79
2022/02/27 14:21:47;;;;;;;6.30;2.55;;;;;;;;;;4947204;28;20047;-79
2022/02/27 14:24:17;;;;;;;4.18;2.30;;;;;;;;;;4949490;28;20068;-79
2022/02/27 14:26:44;;;;;;;1.90;1.60;;;;;;;;;;4937515;28;20118;-79
2022/02/27 14:29:11;;;;;;;6.65;1.80;;;;;;;;;;4938311;28;20051;-78
2022/02/27 14:31:42;;;;;;;2.60;1.92;;;;;;;;;;4952101;28;20074;-78
2022/02/27 14:34:10;;;;;;;5.20;2.10;;;;;;;;;;4955862;28;20053;-78
2022/02/27 14:36:36;;;;;;;3.63;2.15;;;;;;;;;;4948502;28;20049;-78